Time;durP1;ratioP1;P1;durP2;ratioP2;P2;SDS_P1;SDS_P2;PMS_P1;PMS_P2;Temp;Humidity;BMP_temperature;BMP_pressure;BME280_temperature;BME280_humidity;BME280_pressure;Samples;Min_cycle;Max_cycle;Signal;HPM_P1;HPM_P2
2021/12/18 00:02:10;;;;;;;8.73;4.45;;;;;;;3.58;67.06;101079.78;4484050;32;33972;-72
2021/12/18 00:04:38;;;;;;;8.02;4.72;;;;;;;3.36;67.35;101073.28;4484576;32;33664;-69
2021/12/18 00:07:06;;;;;;;9.00;4.25;;;;;;;3.27;67.64;101075.13;4468030;32;34052;-70
2021/12/18 00:09:33;;;;;;;7.47;4.53;;;;;;;2.76;69.41;101082.47;4479411;32;34005;-76
2021/12/18 00:12:02;;;;;;;7.78;4.53;;;;;;;2.83;69.66;101083.50;4478857;32;33995;-70
2021/12/18 00:14:30;;;;;;;8.20;3.95;;;;;;;3.30;67.79;101084.69;4463840;32;34280;-71
2021/12/18 00:16:57;;;;;;;8.10;3.97;;;;;;;3.73;66.31;101079.09;4478798;32;33518;-77
2021/12/18 00:19:26;;;;;;;0.50;0.50;;;;;;;3.20;67.86;101079.50;4478730;32;33922;-74
2021/12/18 00:21:54;;;;;;;7.68;3.90;;;;;;;3.03;69.03;101086.69;4479127;32;32782;-68
2021/12/18 00:24:24;;;;;;;6.95;4.07;;;;;;;3.38;67.44;101086.53;4484088;31;32527;-70
2021/12/18 00:26:51;;;;;;;8.30;3.80;;;;;;;2.76;70.56;101093.19;4484585;32;33566;-67
2021/12/18 00:29:19;;;;;;;10.02;4.95;;;;;;;2.54;71.09;101093.81;4482413;32;34145;-68
2021/12/18 00:31:47;;;;;;;8.32;4.30;;;;;;;2.54;71.06;101096.50;4478468;32;34170;-67
2021/12/18 00:34:14;;;;;;;7.78;4.40;;;;;;;2.87;70.12;101094.72;4478596;32;34385;-70
2021/12/18 00:36:42;;;;;;;6.85;4.60;;;;;;;2.85;70.19;101099.41;4479534;32;32652;-71
2021/12/18 00:39:09;;;;;;;7.47;5.00;;;;;;;2.70;70.56;101095.69;4464244;32;33705;-67
2021/12/18 00:41:59;;;;;;;10.50;4.70;;;;;;;2.61;71.49;101108.22;4479963;32;35061;-67
2021/12/18 00:44:24;;;;;;;7.80;4.40;;;;;;;3.16;69.28;101099.62;4479899;32;33870;-68
2021/12/18 00:46:52;;;;;;;7.20;4.20;;;;;;;2.92;70.20;101113.00;4482433;32;33398;-71
2021/12/18 00:49:19;;;;;;;9.43;4.85;;;;;;;2.79;70.73;101102.78;4478402;32;34032;-69
2021/12/18 00:51:47;;;;;;;7.70;4.50;;;;;;;2.64;71.58;101098.03;4479048;32;34326;-73
2021/12/18 00:54:14;;;;;;;8.32;4.45;;;;;;;2.88;70.11;101093.72;4466078;32;33823;-71
2021/12/18 00:56:42;;;;;;;7.72;4.47;;;;;;;3.11;69.61;101103.78;4480467;32;32042;-73
2021/12/18 00:59:09;;;;;;;8.57;4.60;;;;;;;2.95;70.43;101100.09;4480551;32;34186;-69
2021/12/18 01:01:37;;;;;;;8.63;4.47;;;;;;;3.16;69.59;101101.47;4482256;32;35033;-69
2021/12/18 01:04:05;;;;;;;8.23;4.60;;;;;;;3.10;70.11;101094.09;4480258;32;33571;-76
2021/12/18 01:06:33;;;;;;;6.95;4.30;;;;;;;3.13;69.55;101091.88;4480468;32;32409;-67
2021/12/18 01:09:01;;;;;;;8.45;4.68;;;;;;;3.29;69.76;101104.47;4479937;32;33937;-70
2021/12/18 01:11:42;;;;;;;8.05;4.40;;;;;;;2.99;70.47;101105.97;4480509;32;33694;-68
2021/12/18 01:25:01;;;;;;;8.68;4.90;;;;;;;3.13;70.51;101121.37;4480104;32;33620;-73
2021/12/18 01:27:28;;;;;;;8.00;4.72;;;;;;;3.05;71.10;101114.19;4480111;32;34733;-70
2021/12/18 01:29:56;;;;;;;12.57;5.18;;;;;;;2.68;72.31;101122.66;4480206;32;34847;-69
2021/12/18 01:32:25;;;;;;;9.68;5.00;;;;;;;2.85;72.34;101128.87;4480199;32;34146;-67
2021/12/18 01:34:52;;;;;;;11.55;4.82;;;;;;;3.00;71.58;101139.81;4465686;32;33025;-68
2021/12/18 01:37:20;;;;;;;8.25;4.85;;;;;;;2.97;72.00;101132.09;4479811;32;33776;-67
2021/12/18 01:39:48;;;;;;;7.95;4.53;;;;;;;3.15;71.15;101134.63;4479928;32;33927;-69
2021/12/18 01:53:00;;;;;;;9.40;5.12;;;;;;;2.15;75.02;101138.03;4480310;32;34929;-71
2021/12/18 01:55:31;;;;;;;10.07;5.03;;;;;;;2.64;73.42;101143.59;4480122;32;32444;-68
2021/12/18 01:57:59;;;;;;;11.18;5.72;;;;;;;2.76;73.07;101149.47;4480419;32;33622;-68
2021/12/18 02:00:31;;;;;;;10.38;5.78;;;;;;;2.78;72.76;101142.09;4477752;32;36498;-75
2021/12/18 02:02:59;;;;;;;10.70;5.50;;;;;;;2.64;73.38;101158.84;4465332;32;35020;-69
2021/12/18 02:05:27;;;;;;;9.68;4.90;;;;;;;2.51;73.61;101153.09;4480116;32;35204;-68
2021/12/18 02:07:54;;;;;;;10.45;4.50;;;;;;;2.69;73.16;101144.94;4485228;32;33691;-68
2021/12/18 02:10:25;;;;;;;7.95;4.70;;;;;;;3.14;71.57;101149.91;4485242;32;34348;-71
2021/12/18 02:13:01;;;;;;;8.52;4.95;;;;;;;2.29;74.07;101147.31;4469513;32;34535;-71
2021/12/18 02:21:14;;;;;;;9.95;5.45;;;;;;;2.91;71.08;101155.03;4476081;32;35098;-68
2021/12/18 02:23:42;;;;;;;10.32;5.03;;;;;;;2.37;73.85;101170.59;4485440;32;35070;-70
2021/12/18 02:26:10;;;;;;;10.05;4.72;;;;;;;2.58;73.03;101167.50;4485218;32;33729;-69
2021/12/18 02:28:38;;;;;;;7.43;4.57;;;;;;;3.17;70.54;101168.31;4485307;32;33687;-68
2021/12/18 02:31:05;;;;;;;0.50;0.50;;;;;;;3.16;70.08;101174.72;4485688;32;34041;-68
2021/12/18 02:33:33;;;;;;;10.05;4.93;;;;;;;3.33;69.41;101174.75;4485606;32;34192;-67
2021/12/18 02:36:03;;;;;;;9.52;4.62;;;;;;;2.87;71.38;101170.62;4485178;32;33695;-70
2021/12/18 02:39:25;;;;;;;9.23;4.60;;;;;;;3.32;69.73;101175.72;4485713;32;33950;-71
2021/12/18 02:41:42;;;;;;;0.60;0.60;;;;;;;3.18;69.40;101167.34;4464667;32;34269;-70
2021/12/18 02:44:11;;;;;;;7.32;4.10;;;;;;;3.41;69.18;101174.72;4485198;32;33950;-67
2021/12/18 02:46:40;;;;;;;9.02;4.60;;;;;;;2.78;71.34;101179.63;4484921;32;33593;-69
2021/12/18 02:49:15;;;;;;;9.10;4.82;;;;;;;3.55;68.76;101187.50;4471481;32;33936;-73
2021/12/18 02:51:43;;;;;;;8.00;4.45;;;;;;;2.50;71.50;101191.59;4470575;32;33991;-68
2021/12/18 02:54:10;;;;;;;10.95;5.00;;;;;;;3.14;70.19;101195.50;4485524;32;34873;-69
2021/12/18 02:56:37;;;;;;;8.63;4.87;;;;;;;2.60;71.78;101189.63;4468251;32;32844;-71
2021/12/18 02:59:08;;;;;;;7.37;4.35;;;;;;;2.77;70.63;101191.38;4469934;32;33751;-71
2021/12/18 03:01:38;;;;;;;9.57;4.93;;;;;;;2.52;72.39;101177.03;4484931;32;34307;-69
2021/12/18 03:04:21;;;;;;;8.07;4.35;;;;;;;2.98;70.66;101174.00;4468301;32;34990;-69
2021/12/18 03:06:54;;;;;;;9.20;4.80;;;;;;;2.99;70.31;101179.19;4469572;32;33672;-69
2021/12/18 03:25:39;;;;;;;1.10;0.93;;;;;;;3.04;70.32;101208.19;4457036;32;34316;-69
2021/12/18 03:28:07;;;;;;;10.40;5.05;;;;;;;2.29;72.99;101213.41;4469313;32;33090;-68
2021/12/18 03:30:37;;;;;;;9.48;4.57;;;;;;;3.03;70.73;101215.41;4469261;32;33903;-72
2021/12/18 03:33:05;;;;;;;8.60;4.72;;;;;;;2.50;72.07;101216.53;4455370;32;34189;-70
2021/12/18 03:35:32;;;;;;;8.10;4.35;;;;;;;2.23;72.81;101225.59;4470897;32;33888;-69
2021/12/18 03:38:00;;;;;;;9.13;4.90;;;;;;;2.11;73.65;101216.16;4484929;32;33341;-69
2021/12/18 03:40:28;;;;;;;8.73;4.95;;;;;;;1.84;75.16;101218.81;4468469;32;33441;-69
2021/12/18 03:42:55;;;;;;;8.43;4.87;;;;;;;2.22;74.13;101226.59;4476579;32;33666;-69
2021/12/18 03:45:23;;;;;;;10.65;5.00;;;;;;;2.27;73.35;101229.66;4483348;32;33956;-71
2021/12/18 03:47:52;;;;;;;10.93;4.93;;;;;;;2.55;72.24;101226.75;4480781;32;34338;-73
2021/12/18 03:50:20;;;;;;;1.65;1.10;;;;;;;2.36;73.08;101225.19;4455212;32;34606;-67
2021/12/18 03:52:48;;;;;;;10.52;5.05;;;;;;;2.48;72.96;101213.16;4454808;32;33855;-70
2021/12/18 03:55:16;;;;;;;9.40;4.95;;;;;;;2.77;71.38;101215.50;4468065;32;34212;-73
2021/12/18 03:57:44;;;;;;;8.60;4.75;;;;;;;2.58;71.77;101216.56;4468678;32;33486;-70
2021/12/18 04:00:15;;;;;;;0.57;0.57;;;;;;;2.51;72.22;101222.75;4468856;32;33838;-68
2021/12/18 04:02:42;;;;;;;8.73;4.85;;;;;;;2.41;72.51;101231.72;4466768;32;35073;-68
2021/12/18 04:05:10;;;;;;;9.10;4.62;;;;;;;2.43;72.66;101235.06;4468485;32;34834;-68
2021/12/18 04:07:43;;;;;;;8.68;5.00;;;;;;;2.67;71.36;101234.34;4468195;32;34416;-70
2021/12/18 04:10:13;;;;;;;10.88;4.93;;;;;;;2.40;72.08;101243.44;4468731;32;33916;-67
2021/12/18 04:12:41;;;;;;;9.88;4.60;;;;;;;2.61;71.62;101221.62;4467396;32;34293;-68
2021/12/18 04:15:08;;;;;;;8.55;4.97;;;;;;;2.65;70.83;101217.59;4468549;32;34353;-69
2021/12/18 04:17:36;;;;;;;8.25;4.70;;;;;;;2.22;72.95;101215.88;4482872;32;33693;-69
2021/12/18 04:20:04;;;;;;;7.47;4.30;;;;;;;2.43;72.34;101207.47;4476088;32;34039;-68
2021/12/18 04:22:31;;;;;;;8.75;4.53;;;;;;;2.79;70.87;101205.44;4467909;32;35098;-72
2021/12/18 04:24:59;;;;;;;8.55;4.47;;;;;;;2.40;71.89;101200.59;4480467;32;34165;-75
2021/12/18 04:27:26;;;;;;;11.25;5.10;;;;;;;2.45;72.20;101216.19;4484696;32;33743;-69
2021/12/18 04:29:54;;;;;;;11.02;5.03;;;;;;;2.93;70.12;101221.91;4486329;32;33188;-66
2021/12/18 04:32:21;;;;;;;8.05;4.72;;;;;;;2.74;71.03;101228.38;4484855;32;34138;-69
2021/12/18 04:34:49;;;;;;;8.45;4.78;;;;;;;2.96;70.04;101229.59;4485844;32;33930;-69
2021/12/18 04:37:16;;;;;;;9.80;4.70;;;;;;;2.34;72.18;101227.19;4485933;32;33504;-68
2021/12/18 04:39:44;;;;;;;7.93;4.62;;;;;;;1.96;73.64;101231.94;4485974;32;34701;-70
2021/12/18 04:42:12;;;;;;;6.90;4.22;;;;;;;2.26;72.67;101228.78;4484357;32;34269;-67
2021/12/18 04:44:39;;;;;;;8.70;5.10;;;;;;;2.49;71.70;101238.97;4485676;32;34024;-68
2021/12/18 04:47:06;;;;;;;10.23;4.78;;;;;;;2.75;70.31;101246.13;4485778;32;33244;-67
2021/12/18 04:49:34;;;;;;;8.95;4.85;;;;;;;2.44;71.39;101251.97;4486503;32;34178;-68
2021/12/18 04:52:02;;;;;;;8.32;4.68;;;;;;;2.33;72.11;101254.94;4468752;32;33848;-69
2021/12/18 04:54:29;;;;;;;11.25;5.32;;;;;;;2.61;71.48;101260.97;4484958;32;34778;-70
2021/12/18 04:56:57;;;;;;;9.07;4.95;;;;;;;2.95;69.80;101269.00;4485790;32;34729;-69
2021/12/18 04:59:25;;;;;;;7.62;4.62;;;;;;;2.13;72.83;101273.06;4486071;32;34069;-69
2021/12/18 05:01:53;;;;;;;12.65;5.45;;;;;;;2.55;71.31;101281.22;4483194;32;35199;-74
2021/12/18 05:04:20;;;;;;;10.10;5.20;;;;;;;2.67;70.67;101282.59;4484954;32;34184;-70
2021/12/18 05:06:50;;;;;;;8.15;4.78;;;;;;;2.77;70.04;101282.50;4486239;32;33677;-70
2021/12/18 05:09:18;;;;;;;8.13;4.85;;;;;;;2.74;70.24;101282.78;4485878;32;33868;-70
2021/12/18 05:11:46;;;;;;;9.88;4.78;;;;;;;2.47;70.95;101294.53;4484622;32;34906;-68
2021/12/18 05:14:13;;;;;;;9.88;4.80;;;;;;;2.21;72.02;101295.38;4470983;32;33979;-68
2021/12/18 05:16:41;;;;;;;10.02;4.85;;;;;;;2.79;69.71;101301.94;4485662;32;33674;-70
2021/12/18 05:19:08;;;;;;;9.93;5.00;;;;;;;2.52;70.60;101307.47;4471673;32;33379;-69
2021/12/18 05:21:35;;;;;;;7.50;4.43;;;;;;;2.98;68.96;101314.25;4484957;32;33881;-69
2021/12/18 05:24:03;;;;;;;8.50;4.65;;;;;;;3.01;68.85;101305.88;4484803;32;34152;-68
2021/12/18 05:26:31;;;;;;;8.98;4.93;;;;;;;2.92;68.61;101314.06;4484976;32;32490;-69
2021/12/18 05:28:58;;;;;;;8.57;5.20;;;;;;;2.16;70.62;101319.13;4485965;32;33887;-69
2021/12/18 05:31:26;;;;;;;8.65;5.32;;;;;;;2.61;69.53;101314.56;4484375;32;34346;-68
2021/12/18 05:33:58;;;;;;;10.45;5.28;;;;;;;3.05;68.29;101317.97;4484450;32;33898;-77
2021/12/18 05:39:11;;;;;;;9.50;4.70;;;;;;;3.14;67.20;101318.00;4484227;32;33892;-68
2021/12/18 05:41:38;;;;;;;10.95;5.20;;;;;;;2.78;68.27;101319.00;4484487;32;32800;-69
2021/12/18 05:44:06;;;;;;;13.93;6.15;;;;;;;3.27;66.60;101313.88;4466230;32;34333;-69
2021/12/18 05:46:34;;;;;;;10.25;5.78;;;;;;;3.05;67.62;101317.97;4483900;32;33203;-70
2021/12/18 05:49:02;;;;;;;0.62;0.62;;;;;;;2.71;68.92;101322.50;4484246;32;33923;-69
2021/12/18 05:51:31;;;;;;;9.60;5.22;;;;;;;3.06;67.62;101330.38;4484408;32;34272;-69
2021/12/18 05:53:59;;;;;;;9.55;4.55;;;;;;;2.59;69.11;101324.59;4469412;32;34101;-70
2021/12/18 05:56:27;;;;;;;8.82;5.18;;;;;;;2.39;69.98;101322.09;4484523;32;34118;-75
2021/12/18 05:58:54;;;;;;;12.63;5.07;;;;;;;1.82;72.09;101333.19;4484087;32;33732;-71
2021/12/18 06:01:22;;;;;;;8.77;4.80;;;;;;;1.74;73.48;101329.59;4468801;32;34219;-74
2021/12/18 06:03:50;;;;;;;8.23;4.70;;;;;;;2.30;70.84;101338.28;4467047;32;34962;-69
2021/12/18 06:06:18;;;;;;;9.85;5.18;;;;;;;1.81;72.64;101336.00;4484088;32;34677;-71
2021/12/18 06:08:45;;;;;;;10.05;5.50;;;;;;;1.92;72.49;101332.25;4478863;32;33879;-71
2021/12/18 06:11:15;;;;;;;9.18;5.20;;;;;;;2.11;71.43;101336.62;4484846;32;34966;-73
2021/12/18 06:13:44;;;;;;;8.95;5.32;;;;;;;2.17;70.92;101323.44;4484715;32;34144;-68
2021/12/18 06:16:12;;;;;;;10.05;5.30;;;;;;;2.14;71.65;101333.62;4484264;32;34482;-66
2021/12/18 06:18:44;;;;;;;13.23;5.47;;;;;;;1.78;72.40;101339.84;4485534;32;34027;-67
2021/12/18 06:21:13;;;;;;;8.43;5.45;;;;;;;2.12;71.33;101336.47;4485120;32;34366;-70
2021/12/18 06:23:42;;;;;;;11.95;6.12;;;;;;;2.61;69.53;101338.66;4471346;32;34357;-70
2021/12/18 06:26:09;;;;;;;11.27;5.87;;;;;;;2.44;70.00;101346.59;4477233;32;33691;-68
2021/12/18 06:28:37;;;;;;;9.90;5.35;;;;;;;2.75;68.61;101348.81;4485017;32;33988;-78
2021/12/18 06:31:24;;;;;;;12.27;5.68;;;;;;;2.76;68.94;101342.44;4484988;32;33757;-71
2021/12/18 06:33:52;;;;;;;11.35;5.78;;;;;;;2.32;70.40;101350.53;4485087;32;35166;-78
2021/12/18 06:36:20;;;;;;;9.48;5.40;;;;;;;2.31;70.21;101350.66;4485180;32;33790;-78
2021/12/18 06:38:47;;;;;;;8.45;5.30;;;;;;;2.29;70.45;101344.63;4485035;32;33885;-70
2021/12/18 06:41:15;;;;;;;11.95;5.10;;;;;;;2.27;70.16;101352.84;4485190;32;35161;-79
2021/12/18 06:43:42;;;;;;;8.88;6.10;;;;;;;2.19;70.79;101350.91;4484793;32;34849;-75
2021/12/18 06:46:10;;;;;;;10.30;5.30;;;;;;;2.40;69.42;101361.31;4484941;32;34306;-78
2021/12/18 06:48:37;;;;;;;8.43;4.72;;;;;;;2.76;68.59;101363.88;4485435;32;33725;-73
2021/12/18 06:51:05;;;;;;;12.23;5.40;;;;;;;2.62;68.63;101370.66;4484093;32;33345;-73
2021/12/18 06:53:32;;;;;;;9.90;5.35;;;;;;;2.59;68.50;101379.03;4469182;32;34011;-74
2021/12/18 06:55:59;;;;;;;9.02;5.28;;;;;;;2.39;69.29;101381.03;4472618;32;33839;-67
2021/12/18 06:58:27;;;;;;;10.35;4.90;;;;;;;2.83;67.75;101380.19;4484546;32;33668;-70
2021/12/18 07:00:55;;;;;;;10.25;5.45;;;;;;;2.90;67.65;101385.78;4484613;32;35088;-74
2021/12/18 07:03:22;;;;;;;9.35;6.10;;;;;;;2.66;68.29;101377.41;4484842;32;34778;-77
2021/12/18 07:05:50;;;;;;;11.32;5.90;;;;;;;2.75;67.94;101374.78;4483203;32;33206;-68
2021/12/18 07:08:18;;;;;;;9.07;5.28;;;;;;;3.32;66.19;101377.75;4484816;32;33728;-69
2021/12/18 07:10:45;;;;;;;11.05;5.50;;;;;;;3.26;66.54;101378.41;4484236;32;34212;-69
2021/12/18 07:13:13;;;;;;;10.85;5.72;;;;;;;2.90;67.48;101373.19;4484861;32;35100;-69
2021/12/18 07:15:42;;;;;;;11.35;5.97;;;;;;;2.71;68.27;101370.72;4484824;32;34630;-68
2021/12/18 07:18:09;;;;;;;11.88;6.22;;;;;;;2.63;68.79;101372.34;4484619;32;33636;-69
2021/12/18 07:20:36;;;;;;;10.55;5.70;;;;;;;2.55;69.44;101379.47;4484444;32;34964;-68
2021/12/18 07:23:04;;;;;;;9.52;5.90;;;;;;;2.56;69.72;101371.28;4484781;32;34976;-69
2021/12/18 07:25:32;;;;;;;11.68;5.43;;;;;;;2.75;68.89;101369.44;4484692;32;33795;-70
2021/12/18 07:27:59;;;;;;;12.93;6.28;;;;;;;2.61;69.92;101358.28;4484081;32;34011;-69
2021/12/18 07:30:27;;;;;;;1.05;0.90;;;;;;;2.72;69.28;101370.59;4484695;32;34258;-67
2021/12/18 07:32:54;;;;;;;0.65;0.60;;;;;;;2.89;68.43;101371.50;4485026;32;34877;-66
2021/12/18 07:35:22;;;;;;;12.18;6.00;;;;;;;2.61;69.71;101377.03;4483747;32;33779;-67
2021/12/18 07:37:49;;;;;;;11.50;6.28;;;;;;;2.72;69.58;101381.31;4484539;32;33810;-69
2021/12/18 07:40:17;;;;;;;10.63;6.50;;;;;;;2.64;69.67;101392.78;4485035;32;34163;-69
2021/12/18 07:42:44;;;;;;;14.70;7.05;;;;;;;2.75;69.63;101397.06;4483416;32;34995;-66
2021/12/18 07:45:12;;;;;;;11.93;6.53;;;;;;;2.72;70.11;101393.84;4484574;32;34397;-68
2021/12/18 07:47:40;;;;;;;11.43;6.20;;;;;;;2.57;70.83;101409.63;4484444;32;34006;-68
2021/12/18 07:50:12;;;;;;;11.95;6.37;;;;;;;3.02;69.95;101404.13;4484183;32;34205;-70
2021/12/18 07:52:40;;;;;;;0.50;0.50;;;;;;;3.04;69.33;101411.97;4470828;32;33986;-71
2021/12/18 07:55:07;;;;;;;1.95;1.33;;;;;;;3.80;67.23;101413.84;4484430;32;34376;-69
2021/12/18 07:57:36;;;;;;;12.05;5.95;;;;;;;4.11;65.93;101416.75;4484734;32;33856;-67
2021/12/18 08:00:07;;;;;;;10.20;5.72;;;;;;;3.79;66.87;101424.75;4467659;32;34069;-69
2021/12/18 08:02:34;;;;;;;11.85;5.60;;;;;;;3.66;67.35;101428.72;4463623;32;34776;-69
2021/12/18 08:05:03;;;;;;;10.02;5.80;;;;;;;3.76;67.40;101427.72;4479978;32;34590;-67
2021/12/18 08:07:30;;;;;;;10.93;5.78;;;;;;;4.47;65.29;101423.66;4482810;32;33994;-67
2021/12/18 08:09:58;;;;;;;8.57;5.28;;;;;;;4.64;64.41;101419.13;4484304;32;34126;-69
2021/12/18 08:12:25;;;;;;;9.65;4.90;;;;;;;4.36;65.24;101405.19;4483222;32;34177;-68
2021/12/18 08:14:55;;;;;;;7.70;4.75;;;;;;;4.44;64.71;101402.50;4484220;32;34479;-67
2021/12/18 08:17:23;;;;;;;10.43;4.80;;;;;;;4.89;64.13;101407.34;4481528;32;33913;-71
2021/12/18 08:19:51;;;;;;;8.88;4.60;;;;;;;4.76;63.83;101412.41;4483680;32;34313;-73
2021/12/18 08:22:18;;;;;;;8.82;4.47;;;;;;;4.82;62.28;101413.59;4483072;32;34224;-70
2021/12/18 08:24:46;;;;;;;8.25;4.55;;;;;;;4.88;63.13;101421.81;4481083;32;34370;-74
2021/12/18 08:27:13;;;;;;;7.07;4.57;;;;;;;4.46;63.78;101416.63;4484189;32;34013;-65
2021/12/18 08:29:41;;;;;;;8.57;4.47;;;;;;;5.23;62.31;101414.34;4483200;32;34282;-68
2021/12/18 08:32:08;;;;;;;8.75;5.10;;;;;;;4.64;63.92;101414.59;4469693;32;34139;-68
2021/12/18 08:34:36;;;;;;;9.63;4.65;;;;;;;5.06;62.01;101416.22;4483897;32;33725;-67
2021/12/18 08:37:04;;;;;;;8.48;4.43;;;;;;;5.16;62.54;101409.81;4483938;32;34735;-68
2021/12/18 08:39:31;;;;;;;10.80;4.45;;;;;;;5.65;60.35;101413.16;4483994;32;34943;-66
2021/12/18 08:42:03;;;;;;;8.00;4.68;;;;;;;6.27;58.65;101423.09;4483783;32;34265;-66
2021/12/18 08:44:32;;;;;;;9.63;4.55;;;;;;;6.76;57.51;101419.19;4469791;32;34467;-67
2021/12/18 08:47:00;;;;;;;9.10;4.35;;;;;;;5.78;59.18;101414.44;4482003;32;33711;-66
2021/12/18 08:49:27;;;;;;;8.27;4.72;;;;;;;5.91;58.38;101418.22;4483234;32;35105;-66
2021/12/18 08:51:55;;;;;;;10.68;5.37;;;;;;;6.60;56.62;101422.00;4483125;32;34179;-65
2021/12/18 08:54:25;;;;;;;6.40;4.03;;;;;;;5.35;59.89;101412.94;4470130;32;33813;-66
2021/12/18 08:57:08;;;;;;;9.10;4.97;;;;;;;5.88;59.61;101413.22;4483310;32;34089;-66
2021/12/18 08:59:37;;;;;;;9.68;5.12;;;;;;;6.82;56.62;101417.59;4483260;32;35122;-65
2021/12/18 09:02:06;;;;;;;9.68;4.65;;;;;;;7.09;55.93;101417.00;4483457;32;34267;-65
2021/12/18 09:04:34;;;;;;;8.07;4.45;;;;;;;7.57;54.49;101416.63;4482421;32;33722;-66
2021/12/18 09:07:03;;;;;;;8.68;4.85;;;;;;;8.25;52.33;101408.22;4483420;32;34654;-66
2021/12/18 09:09:38;;;;;;;7.95;4.80;;;;;;;7.53;54.31;101410.75;4484058;32;35104;-66
2021/12/18 09:12:08;;;;;;;8.63;4.45;;;;;;;8.37;51.30;101412.09;4467528;32;34299;-66
2021/12/18 09:14:36;;;;;;;8.00;4.40;;;;;;;6.90;55.13;101415.66;4485333;32;34289;-66
2021/12/18 09:17:04;;;;;;;8.50;4.65;;;;;;;6.58;55.32;101414.09;4485236;32;33896;-66
2021/12/18 09:19:32;;;;;;;7.37;4.10;;;;;;;5.72;57.90;101405.22;4486131;32;34329;-67
2021/12/18 09:21:59;;;;;;;7.70;4.18;;;;;;;6.14;56.78;101404.00;4485243;32;34513;-67
2021/12/18 09:24:27;;;;;;;6.60;3.90;;;;;;;5.84;58.51;101403.81;4485747;32;33826;-66
2021/12/18 09:26:55;;;;;;;7.75;4.22;;;;;;;6.49;56.52;101399.84;4485091;32;34000;-67
2021/12/18 09:29:22;;;;;;;7.75;4.40;;;;;;;6.98;54.64;101394.00;4485586;32;34173;-66
2021/12/18 09:31:49;;;;;;;6.95;4.20;;;;;;;7.29;54.33;101394.84;4485980;32;34162;-67
2021/12/18 09:34:17;;;;;;;6.37;3.47;;;;;;;6.50;55.09;101397.97;4485502;32;33760;-67
2021/12/18 09:36:44;;;;;;;8.98;4.45;;;;;;;6.02;57.95;101402.72;4471732;32;34801;-67
2021/12/18 09:39:14;;;;;;;7.22;3.95;;;;;;;6.44;56.77;101393.34;4468309;32;33930;-66
2021/12/18 09:41:42;;;;;;;8.70;4.22;;;;;;;6.76;55.02;101394.91;4482900;32;33917;-67
2021/12/18 09:44:09;;;;;;;7.57;3.85;;;;;;;5.81;56.83;101395.22;4471852;32;34494;-66
2021/12/18 09:46:37;;;;;;;8.27;3.97;;;;;;;6.19;55.98;101404.28;4480937;32;33771;-69
2021/12/18 09:49:05;;;;;;;6.20;3.83;;;;;;;6.31;56.24;101402.87;4465486;32;34087;-77
2021/12/18 09:51:37;;;;;;;8.02;4.30;;;;;;;5.44;57.52;101403.00;4471281;32;33667;-71
2021/12/18 09:54:05;;;;;;;7.80;3.75;;;;;;;5.43;58.42;101404.00;4484284;32;33770;-76
2021/12/18 09:56:32;;;;;;;6.72;3.67;;;;;;;6.06;57.15;101401.34;4485627;32;34718;-75
2021/12/18 09:59:00;;;;;;;7.47;3.87;;;;;;;6.04;55.53;101392.59;4486185;32;34224;-73
2021/12/18 10:01:27;;;;;;;7.60;4.18;;;;;;;6.23;56.39;101394.84;4485730;32;34810;-75
2021/12/18 10:03:58;;;;;;;7.22;3.55;;;;;;;6.10;55.58;101394.59;4485153;32;33209;-71
2021/12/18 10:06:44;;;;;;;7.35;3.85;;;;;;;5.74;57.29;101393.28;4472163;32;33898;-66
2021/12/18 10:09:17;;;;;;;7.93;4.20;;;;;;;6.29;55.77;101388.72;4485356;32;34989;-67
2021/12/18 10:11:53;;;;;;;6.60;3.58;;;;;;;6.02;55.90;101389.25;4485424;32;34987;-67
2021/12/18 10:14:39;;;;;;;6.62;3.90;;;;;;;6.21;55.27;101391.47;4467904;32;33067;-68
2021/12/18 10:17:17;;;;;;;;;;;;;;;6.80;54.40;101395.34;4469979;32;33946;-67
2021/12/18 10:19:45;;;;;;;6.97;3.92;;;;;;;6.51;55.18;101381.63;4469946;32;34259;-66
2021/12/18 10:22:13;;;;;;;5.18;3.40;;;;;;;6.17;55.44;101384.75;4470658;32;34067;-69
2021/12/18 10:24:42;;;;;;;6.62;3.65;;;;;;;6.37;54.48;101385.09;4484480;32;33700;-73
2021/12/18 10:27:21;;;;;;;6.50;3.50;;;;;;;6.30;54.97;101376.91;4485460;32;34867;-75
2021/12/18 10:29:50;;;;;;;7.37;4.20;;;;;;;5.66;55.61;101378.97;4485236;32;34248;-69
2021/12/18 10:32:24;;;;;;;7.65;3.72;;;;;;;6.07;55.92;101376.06;4485409;32;34711;-69
2021/12/18 10:34:53;;;;;;;6.28;3.80;;;;;;;6.45;54.19;101373.44;4485252;32;33553;-73
2021/12/18 10:37:21;;;;;;;8.02;3.90;;;;;;;6.85;54.01;101363.28;4484852;32;33947;-67
2021/12/18 10:39:54;;;;;;;5.78;3.37;;;;;;;6.86;54.30;101364.94;4485458;32;34933;-69
2021/12/18 10:42:42;;;;;;;5.87;3.75;;;;;;;7.21;52.48;101347.16;4485251;32;34197;-68
2021/12/18 10:45:12;;;;;;;5.47;3.40;;;;;;;7.31;52.82;101355.84;4485417;32;33248;-69
2021/12/18 10:47:44;;;;;;;5.50;3.37;;;;;;;7.25;52.13;101345.78;4470921;32;33932;-68
2021/12/18 10:50:25;;;;;;;5.25;2.92;;;;;;;6.94;52.82;101335.19;4485584;32;34199;-67
2021/12/18 10:53:02;;;;;;;5.12;3.30;;;;;;;7.06;52.66;101333.72;4484924;32;34309;-68
2021/12/18 10:55:59;;;;;;;6.32;3.25;;;;;;;7.30;52.47;101332.56;4485387;32;33537;-66
2021/12/18 10:58:33;;;;;;;6.05;3.12;;;;;;;6.23;54.18;101330.16;4485403;32;34127;-67
2021/12/18 11:01:15;;;;;;;5.65;3.55;;;;;;;6.82;53.14;101321.31;4485434;32;34976;-73
2021/12/18 11:03:45;;;;;;;6.28;3.15;;;;;;;6.61;53.62;101313.97;4485497;32;34192;-71
2021/12/18 11:06:29;;;;;;;4.60;2.58;;;;;;;6.74;53.20;101324.94;4470181;32;33264;-69
2021/12/18 11:09:07;;;;;;;7.47;3.47;;;;;;;6.48;52.14;101325.37;4485157;32;34598;-69
2021/12/18 11:14:23;;;;;;;6.20;2.70;;;;;;;6.14;54.19;101304.28;4484861;32;34207;-72
2021/12/18 11:16:56;;;;;;;7.12;3.03;;;;;;;6.74;51.61;101295.28;4470926;32;34365;-74
2021/12/18 11:19:27;;;;;;;5.03;2.97;;;;;;;6.50;52.73;101293.69;4471444;32;34596;-69
2021/12/18 11:21:57;;;;;;;7.47;3.10;;;;;;;6.27;53.23;101279.41;4484869;32;35181;-69
2021/12/18 11:24:46;;;;;;;6.30;3.22;;;;;;;6.24;52.54;101269.84;4484843;32;34132;-70
2021/12/18 11:27:20;;;;;;;5.32;2.62;;;;;;;6.39;52.58;101277.09;4470962;32;33788;-70
2021/12/18 11:29:51;;;;;;;5.22;3.40;;;;;;;7.21;51.63;101270.75;4484913;32;34108;-69
2021/12/18 11:32:21;;;;;;;5.57;2.58;;;;;;;7.29;51.01;101276.88;4485065;32;34350;-71
2021/12/18 11:34:51;;;;;;;4.10;2.70;;;;;;;7.23;51.04;101269.53;4485217;32;33901;-69
2021/12/18 11:37:20;;;;;;;6.28;2.85;;;;;;;7.38;50.00;101269.50;4484160;32;34600;-68
2021/12/18 11:39:49;;;;;;;5.25;3.10;;;;;;;7.23;50.76;101255.22;4470613;32;33690;-71
2021/12/18 11:42:18;;;;;;;4.05;2.78;;;;;;;6.57;53.27;101250.63;4484659;32;34171;-72
2021/12/18 11:44:59;;;;;;;4.97;2.75;;;;;;;7.24;51.35;101244.22;4485003;32;35196;-70
2021/12/18 11:47:31;;;;;;;5.82;2.83;;;;;;;6.80;52.61;101252.38;4484907;32;33681;-67
2021/12/18 11:50:08;;;;;;;6.70;2.97;;;;;;;6.62;52.89;101248.22;4484794;32;34005;-68
2021/12/18 11:53:02;;;;;;;7.03;3.22;;;;;;;6.23;53.72;101246.59;4470437;32;34907;-67
2021/12/18 11:55:33;;;;;;;8.65;3.40;;;;;;;6.53;53.87;101246.63;4457930;32;33904;-69
2021/12/18 11:58:11;;;;;;;5.82;3.08;;;;;;;6.39;53.83;101244.75;4484640;32;33871;-66
2021/12/18 12:00:51;;;;;;;4.10;2.72;;;;;;;6.24;53.80;101240.19;4484776;32;34062;-68
2021/12/18 12:03:33;;;;;;;5.70;3.00;;;;;;;6.40;54.34;101247.28;4484693;32;35218;-68
2021/12/18 12:06:04;;;;;;;4.70;2.72;;;;;;;6.29;53.71;101237.78;4482437;32;35114;-67
2021/12/18 12:08:37;;;;;;;4.90;3.00;;;;;;;6.23;54.10;101238.50;4484362;32;33843;-67
2021/12/18 12:11:20;;;;;;;5.15;3.28;;;;;;;6.15;53.69;101230.50;4484551;32;34795;-67
2021/12/18 12:13:53;;;;;;;6.53;3.33;;;;;;;6.65;53.45;101233.50;4484498;32;34348;-68
2021/12/18 12:16:45;;;;;;;4.80;3.10;;;;;;;6.35;54.48;101233.53;4457612;32;33792;-70
2021/12/18 12:19:18;;;;;;;6.70;3.20;;;;;;;6.14;54.36;101232.38;4470322;32;33716;-71
2021/12/18 12:21:51;;;;;;;5.70;2.92;;;;;;;6.45;54.37;101234.06;4466152;32;34709;-75
2021/12/18 12:24:22;;;;;;;6.93;3.00;;;;;;;6.74;53.57;101246.72;4468576;32;35010;-80
2021/12/18 12:26:50;;;;;;;5.45;2.85;;;;;;;5.87;55.26;101257.16;4453927;32;34546;-71
2021/12/18 12:29:19;;;;;;;5.82;2.92;;;;;;;6.29;54.40;101251.25;4466484;32;33661;-70
2021/12/18 12:32:01;;;;;;;5.18;3.00;;;;;;;6.53;54.40;101244.75;4451914;32;34772;-68
2021/12/18 12:34:34;;;;;;;5.87;3.22;;;;;;;6.58;53.26;101245.03;4468034;32;35041;-76